Time;durP1;ratioP1;P1;durP2;ratioP2;P2;SDS_P1;SDS_P2;PMS_P1;PMS_P2;Temp;Humidity;BMP_temperature;BMP_pressure;BME280_temperature;BME280_humidity;BME280_pressure;Samples;Min_cycle;Max_cycle;Signal;HPM_P1;HPM_P2
2023/03/30 00:01:47;;;;;;;9.73;2.97;;;14.90;99.90;;;;;;4990642;28;20183;-73
2023/03/30 00:04:12;;;;;;;8.50;3.30;;;15.00;99.90;;;;;;4991297;28;20447;-73
2023/03/30 00:06:41;;;;;;;17.60;6.43;;;15.00;99.90;;;;;;4991320;28;20207;-73
2023/03/30 00:09:06;;;;;;;10.30;3.60;;;15.00;99.90;;;;;;4989412;28;20294;-73
2023/03/30 00:11:33;;;;;;;12.03;3.67;;;15.00;99.90;;;;;;5000382;28;20446;-73
2023/03/30 00:13:59;;;;;;;9.27;3.17;;;15.00;99.90;;;;;;4988863;28;20184;-72
2023/03/30 00:16:24;;;;;;;11.33;3.23;;;15.00;99.90;;;;;;4991614;28;20443;-73
2023/03/30 00:18:50;;;;;;;6.43;3.00;;;15.00;99.90;;;;;;4989546;28;20471;-72
2023/03/30 00:21:20;;;;;;;10.73;4.27;;;15.00;99.90;;;;;;4991038;28;20222;-73
2023/03/30 00:23:46;;;;;;;4.67;2.90;;;15.00;99.90;;;;;;4989760;28;20176;-73
2023/03/30 00:26:12;;;;;;;11.83;2.80;;;14.90;99.90;;;;;;4990313;28;20461;-73
2023/03/30 00:28:38;;;;;;;7.80;3.00;;;14.90;99.90;;;;;;4997942;28;21951;-72
2023/03/30 00:31:04;;;;;;;7.03;3.23;;;14.80;99.90;;;;;;4990371;28;20492;-73
2023/03/30 00:33:30;;;;;;;14.20;3.83;;;14.80;99.90;;;;;;4991052;28;20192;-73
2023/03/30 00:35:56;;;;;;;7.10;3.33;;;14.80;99.90;;;;;;4990675;28;20237;-72
2023/03/30 00:38:22;;;;;;;13.63;3.30;;;14.70;99.90;;;;;;4990673;28;20470;-72
2023/03/30 00:40:53;;;;;;;8.43;3.30;;;14.70;99.90;;;;;;4990035;28;22167;-73
2023/03/30 00:43:20;;;;;;;9.00;5.03;;;14.70;99.90;;;;;;4995631;28;20526;-73
2023/03/30 00:45:46;;;;;;;12.50;4.73;;;14.60;99.90;;;;;;5011103;28;20516;-73
2023/03/30 00:48:40;;;;;;;14.00;3.50;;;14.60;99.90;;;;;;4994015;28;20589;-72
2023/03/30 00:51:09;;;;;;;12.03;3.40;;;14.60;99.90;;;;;;4988364;28;20669;-73
2023/03/30 00:53:44;;;;;;;10.20;3.07;;;14.50;99.90;;;;;;4991687;28;20434;-72
2023/03/30 00:56:12;;;;;;;10.70;3.47;;;14.50;99.90;;;;;;4994743;28;20442;-73
2023/03/30 00:58:39;;;;;;;8.40;3.60;;;14.40;99.90;;;;;;4991138;28;20480;-73
2023/03/30 01:01:09;;;;;;;6.13;2.77;;;14.40;99.90;;;;;;4995345;28;20455;-73
2023/03/30 01:03:47;;;;;;;9.47;3.80;;;14.40;99.90;;;;;;4993819;28;20464;-73
2023/03/30 01:06:16;;;;;;;7.80;3.10;;;14.40;99.90;;;;;;4994242;28;20813;-72
2023/03/30 01:08:43;;;;;;;7.20;2.77;;;14.40;99.90;;;;;;4991987;28;20515;-72
2023/03/30 01:11:08;;;;;;;7.60;3.80;;;14.40;99.90;;;;;;4990955;28;20439;-72
2023/03/30 01:13:41;;;;;;;7.40;3.57;;;14.40;99.90;;;;;;4994103;28;20442;-72
2023/03/30 01:16:31;;;;;;;12.20;3.67;;;14.40;99.90;;;;;;4997218;28;20664;-72
2023/03/30 01:19:23;;;;;;;8.57;3.30;;;14.40;99.90;;;;;;4996095;28;20477;-72
2023/03/30 01:22:07;;;;;;;6.23;3.47;;;14.50;99.90;;;;;;4991461;28;20435;-72
2023/03/30 01:25:09;;;;;;;8.70;3.57;;;14.50;99.90;;;;;;5004155;28;20434;-72
2023/03/30 01:28:05;;;;;;;8.27;3.07;;;14.50;99.90;;;;;;4992590;28;20480;-72
2023/03/30 01:30:53;;;;;;;8.50;4.30;;;14.50;99.90;;;;;;4989738;28;20442;-72
2023/03/30 01:33:53;;;;;;;7.63;3.70;;;14.40;99.90;;;;;;5000366;28;20433;-72
2023/03/30 01:36:40;;;;;;;13.00;2.83;;;14.10;99.90;;;;;;4987780;28;20434;-72
2023/03/30 01:39:32;;;;;;;8.27;3.07;;;13.80;99.90;;;;;;4991274;28;20529;-72
2023/03/30 01:41:59;;;;;;;7.13;3.53;;;13.50;99.90;;;;;;4993368;28;20485;-72
2023/03/30 01:44:36;;;;;;;7.10;3.53;;;13.40;99.90;;;;;;4992646;28;20437;-72
2023/03/30 01:47:32;;;;;;;10.30;3.60;;;13.30;99.90;;;;;;4986956;28;21205;-72
2023/03/30 01:50:08;;;;;;;7.67;2.90;;;13.20;99.90;;;;;;4996311;28;20458;-72
2023/03/30 01:52:52;;;;;;;9.40;3.63;;;13.20;99.90;;;;;;4998465;28;20434;-72
2023/03/30 01:55:28;;;;;;;8.17;3.80;;;13.20;99.90;;;;;;4988809;28;20530;-72
2023/03/30 01:58:13;;;;;;;12.80;3.30;;;13.30;99.90;;;;;;4991712;28;20493;-72
2023/03/30 02:00:40;;;;;;;5.63;3.60;;;13.30;99.90;;;;;;4993230;28;20434;-72
2023/03/30 02:03:15;;;;;;;7.23;3.60;;;13.20;99.90;;;;;;4993028;28;20518;-72
2023/03/30 02:05:42;;;;;;;6.77;4.03;;;13.30;99.90;;;;;;4999411;28;20425;-72
2023/03/30 02:08:12;;;;;;;13.67;4.93;;;13.30;99.90;;;;;;5003720;28;20788;-72
2023/03/30 02:10:40;;;;;;;8.87;3.97;;;13.30;99.90;;;;;;5005456;28;20457;-72
2023/03/30 02:13:07;;;;;;;10.10;4.03;;;13.30;99.90;;;;;;4992831;28;20506;-72
2023/03/30 02:15:37;;;;;;;8.60;3.67;;;13.30;99.90;;;;;;4992352;28;20501;-72
2023/03/30 02:18:03;;;;;;;7.57;3.60;;;13.40;99.90;;;;;;4985230;28;20470;-72
2023/03/30 02:20:30;;;;;;;13.90;4.50;;;13.40;99.90;;;;;;4992211;28;20920;-72
2023/03/30 02:22:56;;;;;;;12.60;3.30;;;13.50;99.90;;;;;;4995157;28;20457;-72
2023/03/30 02:25:22;;;;;;;9.00;3.97;;;13.50;99.90;;;;;;4996684;28;20438;-72
2023/03/30 02:27:48;;;;;;;9.57;3.90;;;13.60;99.90;;;;;;4990921;28;20210;-72
2023/03/30 02:30:14;;;;;;;6.27;3.07;;;13.60;99.90;;;;;;4991825;28;20858;-72
2023/03/30 02:32:44;;;;;;;9.70;3.73;;;13.70;99.90;;;;;;4992493;28;20484;-72
2023/03/30 02:35:33;;;;;;;9.50;4.67;;;13.70;99.90;;;;;;4992141;28;20435;-72
2023/03/30 02:38:23;;;;;;;10.30;3.50;;;13.70;99.90;;;;;;4989995;28;20466;-73
2023/03/30 02:41:10;;;;;;;6.77;3.47;;;13.70;99.90;;;;;;5008303;28;20773;-73
2023/03/30 02:44:01;;;;;;;8.00;4.07;;;13.70;99.90;;;;;;4992012;28;20465;-73
2023/03/30 02:47:05;;;;;;;10.77;3.90;;;13.70;99.90;;;;;;4992432;28;20434;-72
2023/03/30 02:49:56;;;;;;;10.80;3.70;;;13.70;99.90;;;;;;4990319;28;20466;-72
2023/03/30 02:52:36;;;;;;;11.97;4.53;;;13.70;99.90;;;;;;4986479;28;20807;-72
2023/03/30 02:55:33;;;;;;;7.87;3.57;;;13.60;99.90;;;;;;4990767;28;21005;-72
2023/03/30 02:58:29;;;;;;;12.40;4.03;;;13.30;99.90;;;;;;5005941;28;20469;-72
2023/03/30 03:01:04;;;;;;;9.37;4.47;;;13.10;99.90;;;;;;4998847;28;20566;-72
2023/03/30 03:03:39;;;;;;;9.50;3.77;;;12.90;99.90;;;;;;4991888;28;20477;-73
2023/03/30 03:06:08;;;;;;;11.53;4.97;;;12.70;99.90;;;;;;4985149;28;20889;-73
2023/03/30 03:08:38;;;;;;;11.77;4.70;;;12.50;99.90;;;;;;4991193;28;20484;-73
2023/03/30 03:11:04;;;;;;;9.70;3.73;;;12.40;99.90;;;;;;4985067;28;20533;-73
2023/03/30 03:13:29;;;;;;;10.50;4.60;;;12.20;99.90;;;;;;5001584;28;20573;-73
2023/03/30 03:15:55;;;;;;;12.63;4.33;;;12.20;99.90;;;;;;5000162;28;20450;-73
2023/03/30 03:18:22;;;;;;;7.47;4.47;;;12.10;99.90;;;;;;4990076;28;20223;-73
2023/03/30 03:20:49;;;;;;;13.93;4.43;;;12.10;99.90;;;;;;4991933;28;20439;-73
2023/03/30 03:23:14;;;;;;;8.30;4.37;;;12.10;99.90;;;;;;4991436;28;20462;-73
2023/03/30 03:25:40;;;;;;;9.30;4.20;;;12.10;99.90;;;;;;4991141;28;20928;-73
2023/03/30 03:28:05;;;;;;;13.03;4.07;;;12.00;99.90;;;;;;4988075;28;20218;-73
2023/03/30 03:30:31;;;;;;;10.27;5.17;;;12.00;99.90;;;;;;4999357;28;20179;-73
2023/03/30 03:32:57;;;;;;;10.70;4.03;;;11.90;99.90;;;;;;4991192;28;20191;-72
2023/03/30 03:35:23;;;;;;;11.10;4.13;;;11.90;99.90;;;;;;4991882;28;20215;-73
2023/03/30 03:37:48;;;;;;;11.50;4.70;;;11.80;99.90;;;;;;4982844;28;20194;-73
2023/03/30 03:40:15;;;;;;;9.83;5.60;;;11.80;99.90;;;;;;4991086;28;20873;-73
2023/03/30 03:42:41;;;;;;;8.20;4.77;;;11.80;99.90;;;;;;4991639;28;20186;-73
2023/03/30 03:45:06;;;;;;;7.87;4.30;;;11.80;99.90;;;;;;4994869;28;20518;-72
2023/03/30 03:47:33;;;;;;;8.67;4.20;;;11.80;99.90;;;;;;4994831;28;20190;-72
2023/03/30 03:50:02;;;;;;;13.60;4.60;;;11.80;99.90;;;;;;4987881;28;20211;-72
2023/03/30 03:52:27;;;;;;;14.80;4.23;;;11.80;99.90;;;;;;4991473;28;20447;-73
2023/03/30 03:54:53;;;;;;;16.07;4.70;;;11.70;99.90;;;;;;4991586;28;20986;-73
2023/03/30 03:57:18;;;;;;;11.93;3.83;;;11.70;99.90;;;;;;4990518;28;20191;-73
2023/03/30 03:59:44;;;;;;;8.60;4.20;;;11.80;99.90;;;;;;4990133;28;20269;-73
2023/03/30 04:02:10;;;;;;;15.33;4.97;;;11.70;99.90;;;;;;4998809;28;20241;-73
2023/03/30 04:04:35;;;;;;;10.20;4.63;;;11.80;99.90;;;;;;4999694;28;20649;-73
2023/03/30 04:07:01;;;;;;;15.50;3.93;;;11.80;99.90;;;;;;4991639;28;20493;-73
2023/03/30 04:09:27;;;;;;;9.67;3.87;;;11.80;99.90;;;;;;4989730;28;20219;-72
2023/03/30 04:11:52;;;;;;;11.30;4.70;;;11.80;99.90;;;;;;4990649;28;20191;-72
2023/03/30 04:14:18;;;;;;;6.93;5.63;;;11.80;99.90;;;;;;4991292;28;20243;-72
2023/03/30 04:16:43;;;;;;;13.10;4.37;;;11.80;99.90;;;;;;4991125;28;20187;-72
2023/03/30 04:19:11;;;;;;;13.17;5.37;;;11.80;99.90;;;;;;4998321;28;20211;-72
2023/03/30 04:21:39;;;;;;;12.40;6.13;;;11.80;99.90;;;;;;5003027;28;20179;-72
2023/03/30 04:24:06;;;;;;;9.77;4.97;;;11.70;99.90;;;;;;4995224;28;20441;-72
2023/03/30 04:26:31;;;;;;;12.63;4.17;;;11.80;99.90;;;;;;4993059;28;20431;-72
2023/03/30 04:28:59;;;;;;;14.17;5.03;;;11.80;99.90;;;;;;5004677;28;20998;-72
2023/03/30 04:31:24;;;;;;;8.80;5.10;;;11.80;99.90;;;;;;4999136;28;20184;-72
2023/03/30 04:33:52;;;;;;;12.30;4.30;;;11.80;99.90;;;;;;4994325;28;20434;-73
2023/03/30 04:36:18;;;;;;;12.13;4.50;;;11.80;99.90;;;;;;4996824;28;20679;-72
2023/03/30 04:38:56;;;;;;;16.07;5.20;;;11.90;99.90;;;;;;4990800;28;20477;-72
2023/03/30 04:41:25;;;;;;;16.30;4.20;;;11.90;99.90;;;;;;4994139;28;20940;-72
2023/03/30 04:43:50;;;;;;;7.67;4.93;;;12.00;99.90;;;;;;4993780;28;20445;-72
2023/03/30 04:46:16;;;;;;;15.73;6.33;;;12.00;99.90;;;;;;4994041;28;20442;-72
2023/03/30 04:48:42;;;;;;;13.07;4.80;;;12.10;99.90;;;;;;4993973;28;20625;-72
2023/03/30 04:51:07;;;;;;;17.77;4.30;;;12.10;99.90;;;;;;4994362;28;20187;-72
2023/03/30 04:53:33;;;;;;;12.70;4.50;;;12.10;99.90;;;;;;5006786;28;20434;-72
2023/03/30 04:55:58;;;;;;;11.77;5.20;;;12.10;99.90;;;;;;5002736;28;20270;-72
2023/03/30 04:58:24;;;;;;;15.60;5.30;;;12.10;99.90;;;;;;4993317;28;20652;-72
2023/03/30 05:00:49;;;;;;;10.13;3.80;;;12.20;99.90;;;;;;4994027;28;20183;-72
2023/03/30 05:03:15;;;;;;;9.37;4.80;;;12.20;99.90;;;;;;5008025;28;20267;-72
2023/03/30 05:05:40;;;;;;;11.23;4.43;;;12.20;99.90;;;;;;4990347;28;20172;-72
2023/03/30 05:08:06;;;;;;;14.80;4.73;;;12.20;99.90;;;;;;4993963;28;20184;-72
2023/03/30 05:10:32;;;;;;;14.87;6.27;;;12.20;99.90;;;;;;5032233;23;20760;-66
2023/03/30 05:12:57;;;;;;;11.10;4.57;;;12.20;99.90;;;;;;5013290;28;20185;-66
2023/03/30 05:15:23;;;;;;;12.90;5.23;;;12.20;99.90;;;;;;5007490;28;20306;-65
2023/03/30 05:17:48;;;;;;;7.43;4.30;;;12.30;99.90;;;;;;5011488;28;20182;-66
2023/03/30 05:20:14;;;;;;;13.13;5.67;;;12.30;99.90;;;;;;5002907;28;20282;-66
2023/03/30 05:22:40;;;;;;;12.80;4.97;;;12.30;99.90;;;;;;4996709;28;20175;-66
2023/03/30 05:25:06;;;;;;;14.07;5.80;;;12.30;99.90;;;;;;4991483;28;20175;-66
2023/03/30 05:27:32;;;;;;;14.80;5.43;;;12.30;99.90;;;;;;4986354;28;20443;-66
2023/03/30 05:29:57;;;;;;;9.23;4.90;;;12.30;99.90;;;;;;4994360;28;20453;-66
2023/03/30 05:32:23;;;;;;;18.03;6.43;;;12.30;99.90;;;;;;4995373;28;20442;-66
2023/03/30 05:34:48;;;;;;;13.30;4.63;;;12.30;99.90;;;;;;4990447;28;20191;-66
2023/03/30 05:37:14;;;;;;;11.40;5.40;;;12.30;99.90;;;;;;4992618;28;20258;-66
2023/03/30 05:39:40;;;;;;;18.27;6.00;;;12.30;99.90;;;;;;4992583;28;20282;-67
2023/03/30 05:42:06;;;;;;;13.90;5.60;;;12.40;99.90;;;;;;4993383;28;20216;-66
2023/03/30 05:44:32;;;;;;;11.77;4.77;;;12.30;99.90;;;;;;4991416;28;20188;-66
2023/03/30 05:46:57;;;;;;;12.80;4.70;;;12.30;99.90;;;;;;5000849;28;20520;-66
2023/03/30 05:49:23;;;;;;;17.13;5.20;;;12.40;99.90;;;;;;4993678;28;20846;-67
2023/03/30 05:51:48;;;;;;;17.00;5.70;;;12.40;99.90;;;;;;4991508;28;20237;-67
2023/03/30 05:54:14;;;;;;;13.03;5.10;;;12.50;99.90;;;;;;4993483;28;20713;-66
2023/03/30 05:56:41;;;;;;;11.93;5.30;;;12.50;99.90;;;;;;4992817;28;20191;-67
2023/03/30 05:59:08;;;;;;;14.67;4.73;;;12.60;99.90;;;;;;4991600;28;20301;-66
2023/03/30 06:01:35;;;;;;;10.27;4.27;;;12.60;99.90;;;;;;4991727;28;21106;-66
2023/03/30 06:04:00;;;;;;;12.47;4.50;;;12.70;99.90;;;;;;4996865;28;22205;-67
2023/03/30 06:06:26;;;;;;;17.70;5.80;;;12.70;99.90;;;;;;4991597;28;20471;-68
2023/03/30 06:08:52;;;;;;;15.83;4.83;;;12.70;99.90;;;;;;4992375;28;20207;-67
2023/03/30 06:11:17;;;;;;;11.30;5.43;;;12.70;99.90;;;;;;4992964;28;20449;-67
2023/03/30 06:13:43;;;;;;;11.77;4.33;;;12.70;99.90;;;;;;4990647;28;20648;-67
2023/03/30 06:16:09;;;;;;;14.60;7.20;;;12.70;99.90;;;;;;4982839;28;20180;-67
2023/03/30 06:18:35;;;;;;;10.90;4.70;;;12.60;99.90;;;;;;4984889;28;20199;-67
2023/03/30 06:21:05;;;;;;;13.67;4.63;;;12.50;99.90;;;;;;4993009;28;20473;-67
2023/03/30 06:23:32;;;;;;;14.87;4.50;;;12.40;99.90;;;;;;4993808;28;20171;-67
2023/03/30 06:25:58;;;;;;;18.57;5.60;;;12.40;99.90;;;;;;4977632;28;20517;-67
2023/03/30 06:28:24;;;;;;;10.93;4.53;;;12.30;99.90;;;;;;4993437;28;21018;-67
2023/03/30 06:30:50;;;;;;;11.07;4.30;;;12.30;99.90;;;;;;4988082;28;20434;-66
2023/03/30 06:33:17;;;;;;;9.17;4.27;;;12.30;99.90;;;;;;4991261;28;20442;-66
2023/03/30 06:35:47;;;;;;;17.20;4.60;;;12.30;99.90;;;;;;4991707;28;20187;-67
2023/03/30 06:38:13;;;;;;;13.30;5.30;;;12.40;99.90;;;;;;4985281;28;20463;-66
2023/03/30 06:40:39;;;;;;;15.43;5.40;;;12.40;99.90;;;;;;4988039;28;20450;-67
2023/03/30 06:43:06;;;;;;;13.40;4.93;;;12.40;99.90;;;;;;4992718;28;20430;-67
2023/03/30 06:45:31;;;;;;;12.03;5.10;;;12.40;99.90;;;;;;4991989;28;20175;-67
2023/03/30 06:47:57;;;;;;;13.03;4.60;;;12.50;99.90;;;;;;5003169;28;20445;-66
2023/03/30 06:50:23;;;;;;;12.13;4.93;;;12.50;99.90;;;;;;4986067;28;20200;-65
2023/03/30 06:52:48;;;;;;;14.23;5.10;;;12.50;99.90;;;;;;4990336;28;20183;-67
2023/03/30 06:55:14;;;;;;;8.27;4.30;;;12.60;99.90;;;;;;4989358;28;20321;-67
2023/03/30 06:57:40;;;;;;;8.60;4.40;;;12.60;99.90;;;;;;4998836;28;20254;-67
2023/03/30 07:00:13;;;;;;;10.00;5.27;;;12.70;99.90;;;;;;4988460;28;20512;-67
2023/03/30 07:02:40;;;;;;;9.40;4.53;;;12.80;99.90;;;;;;4989465;28;20534;-67
2023/03/30 07:05:06;;;;;;;12.67;5.00;;;12.90;99.90;;;;;;4992534;28;20874;-67
2023/03/30 07:07:32;;;;;;;10.23;4.70;;;12.90;99.90;;;;;;4991984;28;20450;-66
2023/03/30 07:09:58;;;;;;;11.53;5.20;;;13.00;99.90;;;;;;4993092;28;20476;-67
2023/03/30 07:12:23;;;;;;;14.53;6.60;;;13.00;99.90;;;;;;4994651;28;20442;-67
2023/03/30 07:14:49;;;;;;;9.67;4.10;;;13.00;99.90;;;;;;5006013;28;20641;-67
2023/03/30 07:17:15;;;;;;;18.97;4.93;;;13.00;99.90;;;;;;4990289;28;20259;-67
2023/03/30 07:19:40;;;;;;;15.67;6.10;;;13.00;99.90;;;;;;4988112;28;20688;-67
2023/03/30 07:22:06;;;;;;;9.17;4.33;;;13.00;99.90;;;;;;4991154;28;20261;-67
2023/03/30 07:24:32;;;;;;;14.03;5.33;;;13.00;99.90;;;;;;4991233;28;20552;-67
2023/03/30 07:26:58;;;;;;;16.50;5.40;;;12.90;99.90;;;;;;4990327;28;20253;-66
2023/03/30 07:29:25;;;;;;;13.33;6.30;;;12.80;99.90;;;;;;4982558;28;20478;-67
2023/03/30 07:31:51;;;;;;;17.90;5.70;;;12.70;99.90;;;;;;4978871;28;20482;-69
2023/03/30 07:34:17;;;;;;;14.47;4.97;;;12.70;99.90;;;;;;4984322;28;20470;-67
2023/03/30 07:36:42;;;;;;;15.87;4.90;;;12.60;99.90;;;;;;4978102;28;20171;-67
2023/03/30 07:39:08;;;;;;;8.73;5.13;;;12.60;99.90;;;;;;4980795;28;20204;-68
2023/03/30 07:41:34;;;;;;;15.60;6.07;;;12.60;99.90;;;;;;4989321;28;20302;-68
2023/03/30 07:43:59;;;;;;;15.43;6.27;;;12.50;99.90;;;;;;4982164;28;20225;-67
2023/03/30 07:46:25;;;;;;;18.03;6.30;;;12.40;99.90;;;;;;4981421;28;20180;-67
2023/03/30 07:48:51;;;;;;;14.57;6.10;;;12.50;99.90;;;;;;4984194;28;20215;-67
2023/03/30 07:51:17;;;;;;;16.83;6.40;;;12.50;99.90;;;;;;4990248;28;20550;-67
2023/03/30 07:53:43;;;;;;;10.50;5.37;;;12.50;99.90;;;;;;4984381;28;20937;-67
2023/03/30 07:56:09;;;;;;;10.80;5.50;;;12.50;99.90;;;;;;4995643;28;20449;-67
2023/03/30 07:58:35;;;;;;;16.47;5.40;;;12.60;99.90;;;;;;4994116;28;20210;-66
2023/03/30 08:01:02;;;;;;;14.07;5.50;;;12.60;99.90;;;;;;4994116;28;20438;-66
2023/03/30 08:03:27;;;;;;;16.07;6.20;;;12.60;99.90;;;;;;4990276;28;20880;-66
2023/03/30 08:05:55;;;;;;;13.17;5.43;;;12.70;99.90;;;;;;4999440;28;20466;-65
2023/03/30 08:08:21;;;;;;;11.10;6.10;;;12.70;99.90;;;;;;4997763;28;20180;-65
2023/03/30 08:10:48;;;;;;;12.33;6.20;;;12.70;99.90;;;;;;4991515;28;20473;-64
2023/03/30 08:13:13;;;;;;;12.93;6.00;;;12.70;99.90;;;;;;4993830;28;20426;-66
2023/03/30 08:15:39;;;;;;;12.23;5.30;;;12.70;99.90;;;;;;4995071;28;21035;-67
2023/03/30 08:18:06;;;;;;;11.17;5.17;;;12.70;99.90;;;;;;4998397;28;20209;-65
2023/03/30 08:20:36;;;;;;;12.00;5.13;;;12.70;99.90;;;;;;5008731;28;20627;-67
2023/03/30 08:23:03;;;;;;;16.83;5.43;;;12.80;99.90;;;;;;4989959;28;20438;-67
2023/03/30 08:25:29;;;;;;;11.30;4.80;;;12.80;99.90;;;;;;4994177;28;20470;-66
2023/03/30 08:27:55;;;;;;;14.00;4.73;;;12.70;99.90;;;;;;4994890;28;20430;-67
2023/03/30 08:30:21;;;;;;;11.13;4.90;;;12.70;99.90;;;;;;4992905;28;20540;-67
2023/03/30 08:32:47;;;;;;;6.73;4.83;;;12.80;99.90;;;;;;4993911;28;20551;-67
2023/03/30 08:35:13;;;;;;;13.73;5.70;;;12.80;99.90;;;;;;4996456;28;20437;-65
2023/03/30 08:37:38;;;;;;;12.77;5.33;;;12.90;99.90;;;;;;5000441;28;20179;-66
2023/03/30 08:40:09;;;;;;;8.70;5.17;;;12.90;99.90;;;;;;4993431;28;20470;-66
2023/03/30 08:43:00;;;;;;;9.43;5.00;;;12.90;99.90;;;;;;4993786;28;20183;-67
2023/03/30 08:45:34;;;;;;;18.07;9.30;;;12.90;99.90;;;;;;4992366;28;20525;-66
2023/03/30 08:48:01;;;;;;;8.47;6.80;;;12.80;99.90;;;;;;4993591;28;20438;-66
2023/03/30 08:50:35;;;;;;;6.70;5.67;;;12.80;99.90;;;;;;4989946;28;20454;-66
2023/03/30 08:53:03;;;;;;;9.07;4.60;;;12.80;99.90;;;;;;5011709;28;20430;-65
2023/03/30 08:55:56;;;;;;;6.03;3.97;;;12.60;99.90;;;;;;4998883;28;20435;-66
2023/03/30 08:58:30;;;;;;;8.77;4.13;;;12.40;99.90;;;;;;4989601;28;20844;-66
2023/03/30 09:01:21;;;;;;;6.60;4.30;;;12.30;99.90;;;;;;4993930;28;20437;-67
2023/03/30 09:04:03;;;;;;;12.10;4.27;;;12.20;99.90;;;;;;4985987;28;20869;-66
2023/03/30 09:06:44;;;;;;;7.00;4.63;;;12.10;99.90;;;;;;4990363;28;20447;-65
2023/03/30 09:09:14;;;;;;;4.40;3.20;;;12.00;99.90;;;;;;4991936;28;20560;-66
2023/03/30 09:11:40;;;;;;;11.77;4.27;;;11.90;99.90;;;;;;4990463;28;20470;-66
2023/03/30 09:14:14;;;;;;;7.97;5.10;;;11.90;99.90;;;;;;4994088;28;20462;-66
2023/03/30 09:16:54;;;;;;;5.03;3.80;;;11.80;99.90;;;;;;4993154;28;20438;-65
2023/03/30 09:19:31;;;;;;;5.90;3.50;;;11.80;99.90;;;;;;4988014;28;20589;-66
2023/03/30 09:21:59;;;;;;;5.03;3.77;;;11.70;99.90;;;;;;4992505;28;20454;-66
2023/03/30 09:24:26;;;;;;;10.60;3.20;;;11.70;99.90;;;;;;4992289;28;20496;-66
2023/03/30 09:26:58;;;;;;;3.37;3.07;;;11.70;99.90;;;;;;4995123;28;20951;-66
2023/03/30 09:29:30;;;;;;;5.77;3.40;;;11.70;99.90;;;;;;4990642;28;20501;-66
2023/03/30 09:32:13;;;;;;;8.83;3.70;;;11.80;99.90;;;;;;4991751;28;20446;-66
2023/03/30 09:34:49;;;;;;;4.03;3.13;;;11.90;99.90;;;;;;4992828;28;20470;-66
2023/03/30 09:37:20;;;;;;;6.30;3.97;;;11.90;99.90;;;;;;4990670;28;20525;-66
2023/03/30 09:39:46;;;;;;;7.00;3.80;;;11.90;99.90;;;;;;5005170;28;20529;-66
2023/03/30 09:42:35;;;;;;;5.03;4.53;;;11.90;99.90;;;;;;4999447;28;20462;-66
2023/03/30 09:45:15;;;;;;;4.43;3.50;;;12.00;99.90;;;;;;4992899;28;20808;-67
2023/03/30 09:47:41;;;;;;;8.37;3.20;;;12.00;99.90;;;;;;4992582;28;20446;-67
2023/03/30 09:50:25;;;;;;;4.83;3.30;;;12.10;99.90;;;;;;4992159;28;20458;-67
2023/03/30 09:53:00;;;;;;;4.23;3.30;;;12.20;99.90;;;;;;4987396;28;20183;-65
2023/03/30 09:55:27;;;;;;;4.17;3.73;;;12.30;99.90;;;;;;4986796;28;20549;-66
2023/03/30 09:57:54;;;;;;;5.00;3.93;;;12.40;99.90;;;;;;4992273;28;20473;-66
2023/03/30 10:00:30;;;;;;;5.50;3.77;;;12.40;99.90;;;;;;4988138;28;21221;-67
2023/03/30 10:02:58;;;;;;;5.43;3.60;;;12.40;99.90;;;;;;4994998;28;20974;-66
2023/03/30 10:05:25;;;;;;;5.10;4.20;;;12.40;99.90;;;;;;5001290;28;20461;-67
2023/03/30 10:07:59;;;;;;;6.40;4.47;;;12.40;99.90;;;;;;4987449;28;20448;-63
2023/03/30 10:10:28;;;;;;;5.90;3.83;;;13.10;99.90;;;;;;4990615;28;21130;-66
2023/03/30 10:12:56;;;;;;;6.50;5.13;;;13.60;99.90;;;;;;4999951;28;20473;-65
2023/03/30 10:15:26;;;;;;;4.93;4.30;;;13.90;99.90;;;;;;4992924;28;20438;-66
2023/03/30 10:17:55;;;;;;;5.20;3.93;;;14.00;99.90;;;;;;4990800;28;20450;-66
2023/03/30 10:20:25;;;;;;;6.40;4.07;;;14.10;99.90;;;;;;4990742;28;20944;-72
2023/03/30 10:22:59;;;;;;;6.40;3.17;;;14.10;99.90;;;;;;4988748;28;20579;-69
2023/03/30 10:25:30;;;;;;;5.40;4.63;;;14.00;99.90;;;;;;4992497;28;20434;-72
2023/03/30 10:28:00;;;;;;;13.43;4.07;;;14.00;99.90;;;;;;4993068;28;20445;-71
2023/03/30 10:30:26;;;;;;;4.50;3.70;;;14.00;99.90;;;;;;4990882;28;20462;-66
2023/03/30 10:32:54;;;;;;;8.13;4.43;;;14.00;99.90;;;;;;4990531;28;20430;-67
2023/03/30 10:35:24;;;;;;;8.33;4.67;;;14.00;99.90;;;;;;4986109;28;20443;-66
2023/03/30 10:37:52;;;;;;;6.57;3.77;;;13.90;99.90;;;;;;4986284;28;21248;-67
2023/03/30 10:40:27;;;;;;;4.97;4.47;;;13.90;99.90;;;;;;4995242;28;20466;-67
2023/03/30 10:42:56;;;;;;;6.40;4.87;;;13.80;99.90;;;;;;4994327;28;20452;-67
2023/03/30 10:45:50;;;;;;;6.53;4.00;;;13.80;99.90;;;;;;4993256;28;20807;-67
2023/03/30 10:48:22;;;;;;;12.60;3.70;;;13.70;99.90;;;;;;4991556;28;20798;-68
2023/03/30 10:50:57;;;;;;;6.50;4.10;;;13.70;99.90;;;;;;4993036;28;20908;-68
2023/03/30 10:53:44;;;;;;;5.03;3.43;;;13.60;99.90;;;;;;4998343;28;20437;-66
2023/03/30 10:56:16;;;;;;;8.40;5.67;;;13.60;99.90;;;;;;4994031;28;20461;-67
2023/03/30 10:59:16;;;;;;;5.43;4.60;;;13.50;99.90;;;;;;4991078;28;20450;-67
2023/03/30 11:02:06;;;;;;;6.93;4.60;;;13.70;99.90;;;;;;4952262;29;20463;-68
2023/03/30 11:04:44;;;;;;;9.93;4.80;;;13.80;99.90;;;;;;4992602;28;20429;-69
2023/03/30 11:07:32;;;;;;;5.73;4.50;;;13.90;99.90;;;;;;4996473;28;20434;-69
2023/03/30 11:10:04;;;;;;;5.90;3.23;;;13.80;99.90;;;;;;5013581;23;20601;-71
2023/03/30 11:12:39;;;;;;;7.70;4.33;;;13.60;99.90;;;;;;4992661;28;20426;-71
2023/03/30 11:15:36;;;;;;;7.90;5.20;;;13.50;99.90;;;;;;4976995;28;20422;-72
2023/03/30 11:18:04;;;;;;;7.10;4.63;;;13.50;99.90;;;;;;4956505;28;20467;-71
2023/03/30 11:20:36;;;;;;;6.23;4.23;;;13.50;99.90;;;;;;4972565;28;20440;-72
2023/03/30 11:23:24;;;;;;;5.73;4.63;;;13.40;99.90;;;;;;4982435;28;20796;-72
2023/03/30 11:26:02;;;;;;;6.90;4.13;;;13.50;99.90;;;;;;4989621;28;20968;-73
2023/03/30 11:28:46;;;;;;;6.20;4.50;;;13.50;99.90;;;;;;4997689;28;21032;-72
2023/03/30 11:31:40;;;;;;;6.27;4.40;;;13.50;99.90;;;;;;4988363;28;20573;-72
2023/03/30 11:34:42;;;;;;;6.33;5.73;;;13.80;99.90;;;;;;4982756;28;20814;-71
2023/03/30 11:37:23;;;;;;;7.80;4.07;;;14.10;99.90;;;;;;4987011;28;20881;-72
2023/03/30 11:40:15;;;;;;;5.67;4.03;;;14.40;99.90;;;;;;4987762;28;20474;-71
2023/03/30 11:42:41;;;;;;;7.00;4.43;;;14.80;99.90;;;;;;4982429;28;20940;-72
2023/03/30 11:45:44;;;;;;;5.67;4.57;;;14.80;99.90;;;;;;4988063;28;20489;-72
2023/03/30 11:48:37;;;;;;;7.63;4.23;;;14.70;99.90;;;;;;4979529;28;20438;-72
2023/03/30 11:51:19;;;;;;;8.40;4.33;;;14.80;99.90;;;;;;4989151;28;20454;-71
2023/03/30 11:53:59;;;;;;;5.97;4.00;;;14.70;99.90;;;;;;4988422;28;20470;-71
2023/03/30 11:56:49;;;;;;;8.53;3.97;;;14.70;99.90;;;;;;4991658;28;20441;-71
2023/03/30 11:59:26;;;;;;;8.50;4.57;;;14.80;99.90;;;;;;4989286;28;20474;-72
2023/03/30 12:02:22;;;;;;;4.60;3.77;;;14.90;99.90;;;;;;4991200;28;20816;-73
2023/03/30 12:05:04;;;;;;;6.17;3.60;;;14.90;99.90;;;;;;4990581;28;20439;-72
2023/03/30 12:07:48;;;;;;;9.83;4.70;;;15.10;99.90;;;;;;4983810;28;20462;-73
2023/03/30 12:10:22;;;;;;;4.50;4.10;;;15.20;99.90;;;;;;4989118;28;20480;-73
2023/03/30 12:12:50;;;;;;;4.23;3.70;;;15.50;99.90;;;;;;4990704;28;20477;-72
2023/03/30 12:15:43;;;;;;;5.53;4.10;;;15.50;99.90;;;;;;4990569;28;20442;-72
2023/03/30 12:18:44;;;;;;;6.50;4.07;;;15.30;99.90;;;;;;4986368;28;20465;-72
2023/03/30 12:21:32;;;;;;;7.77;5.30;;;15.00;99.90;;;;;;4989897;28;20454;-71
2023/03/30 12:24:22;;;;;;;9.63;5.03;;;14.70;99.90;;;;;;4991333;28;20591;-73
2023/03/30 12:26:48;;;;;;;6.27;4.50;;;14.50;99.90;;;;;;4989929;28;20461;-72
2023/03/30 12:29:16;;;;;;;8.10;5.33;;;15.20;99.90;;;;;;4989876;28;20462;-72
2023/03/30 12:31:57;;;;;;;7.33;4.50;;;15.30;99.90;;;;;;4989300;28;20184;-72
2023/03/30 12:34:26;;;;;;;6.13;3.90;;;15.50;99.90;;;;;;4989832;28;20450;-72
2023/03/30 12:37:03;;;;;;;5.70;4.47;;;16.40;99.90;;;;;;4988310;28;20529;-72
2023/03/30 12:39:43;;;;;;;7.57;4.47;;;17.40;99.90;;;;;;4985094;28;20586;-72
2023/03/30 12:42:24;;;;;;;8.57;5.00;;;17.90;99.90;;;;;;4992834;28;20438;-72
2023/03/30 12:45:19;;;;;;;8.53;4.73;;;17.90;99.90;;;;;;4992888;28;20525;-72
2023/03/30 12:47:51;;;;;;;6.20;4.87;;;18.20;99.90;;;;;;4991614;28;20819;-72
2023/03/30 12:50:36;;;;;;;8.40;5.07;;;18.00;99.90;;;;;;4993082;28;20495;-72
2023/03/30 12:53:27;;;;;;;5.23;4.03;;;17.80;99.90;;;;;;4993728;28;20470;-74
2023/03/30 12:56:12;;;;;;;8.50;4.37;;;18.50;99.90;;;;;;4992403;28;20438;-72
2023/03/30 12:59:01;;;;;;;5.30;4.63;;;18.60;99.90;;;;;;4991935;28;20454;-72
2023/03/30 13:01:49;;;;;;;3.80;3.50;;;17.60;99.90;;;;;;4990133;28;20449;-71
2023/03/30 13:04:23;;;;;;;6.07;4.33;;;16.70;99.90;;;;;;4974799;28;20442;-71
2023/03/30 13:06:56;;;;;;;6.00;4.27;;;16.50;99.90;;;;;;4994468;28;20489;-72
2023/03/30 13:09:26;;;;;;;5.17;3.67;;;16.30;99.90;;;;;;4992728;28;20478;-73